Time;durP1;ratioP1;P1;durP2;ratioP2;P2;SDS_P1;SDS_P2;PMS_P1;PMS_P2;Temp;Humidity;BMP_temperature;BMP_pressure;BME280_temperature;BME280_humidity;BME280_pressure;Samples;Min_cycle;Max_cycle;Signal;HPM_P1;HPM_P2
2023/01/03 00:03:02;;;;;;;275.55;163.98;;;;;;;2.38;92.43;98630.88;10437606;28;20135;-54
2023/01/03 00:08:01;;;;;;;248.18;148.63;;;;;;;2.19;91.92;98605.25;10432145;28;20112;-54
2023/01/03 00:13:00;;;;;;;238.18;138.77;;;;;;;2.31;91.85;98626.28;10434237;28;20040;-52
2023/01/03 00:17:59;;;;;;;216.27;127.57;;;;;;;2.28;91.91;98630.41;10435599;28;20398;-53
2023/01/03 00:22:59;;;;;;;219.50;131.45;;;;;;;2.26;91.96;98632.00;10431552;28;20039;-54
2023/01/03 00:27:58;;;;;;;215.35;124.38;;;;;;;2.21;92.35;98628.34;10434357;28;20106;-53
2023/01/03 00:32:57;;;;;;;192.30;114.63;;;;;;;2.15;92.00;98642.63;10433744;28;20107;-54
2023/01/03 00:37:56;;;;;;;195.68;114.25;;;;;;;2.14;92.59;98642.56;10436798;28;20071;-53
2023/01/03 00:48:12;;;;;;;155.25;92.80;;;;;;;2.15;92.50;98637.50;10436323;28;20079;-54
2023/01/03 00:53:11;;;;;;;189.50;108.38;;;;;;;2.06;92.28;98631.06;10435323;28;20036;-54
2023/01/03 00:58:10;;;;;;;218.57;122.32;;;;;;;2.09;92.47;98628.66;10433993;28;20507;-52
2023/01/03 01:03:09;;;;;;;194.65;115.40;;;;;;;2.08;92.21;98635.47;10434161;28;20090;-53
2023/01/03 01:08:08;;;;;;;188.32;112.82;;;;;;;2.04;92.18;98620.75;10435097;28;20818;-52
2023/01/03 01:13:06;;;;;;;166.02;99.75;;;;;;;1.97;92.30;98623.84;10431655;28;20380;-52
2023/01/03 01:18:05;;;;;;;165.05;100.28;;;;;;;1.97;92.58;98618.72;10437584;28;20047;-53
2023/01/03 01:23:04;;;;;;;136.85;85.70;;;;;;;1.91;92.05;98621.00;10436947;28;20038;-54
2023/01/03 01:28:03;;;;;;;127.68;73.45;;;;;;;1.83;92.69;98623.19;10465668;28;20134;-53
2023/01/03 01:33:03;;;;;;;116.80;72.32;;;;;;;1.79;92.66;98615.31;10444227;28;20174;-54
2023/01/03 01:38:02;;;;;;;111.85;67.03;;;;;;;1.75;92.57;98611.72;10443342;28;20097;-54
2023/01/03 01:48:33;;;;;;;130.20;77.45;;;;;;;1.72;93.18;98614.16;10458129;28;20127;-51
2023/01/03 01:53:34;;;;;;;115.57;71.03;;;;;;;1.67;92.97;98608.81;10461867;28;20067;-53
2023/01/03 01:58:38;;;;;;;120.35;72.30;;;;;;;1.61;93.10;98598.28;10459269;28;20491;-54
2023/01/03 02:03:40;;;;;;;120.75;70.70;;;;;;;1.58;93.16;98605.81;10460634;28;20485;-51
2023/01/03 02:08:38;;;;;;;131.55;81.40;;;;;;;1.54;93.02;98599.66;10458206;28;20098;-52
2023/01/03 02:14:02;;;;;;;120.00;74.35;;;;;;;1.48;93.19;98594.25;10461313;28;20210;-53
2023/01/03 02:19:17;;;;;;;124.35;73.60;;;;;;;1.45;93.06;98588.97;10457291;28;20071;-53
2023/01/03 02:24:37;;;;;;;127.60;74.97;;;;;;;1.39;93.36;98592.91;10444006;28;20067;-53
2023/01/03 02:29:39;;;;;;;128.25;78.20;;;;;;;1.33;93.38;98599.50;10442961;28;20063;-54
2023/01/03 02:34:56;;;;;;;169.52;95.88;;;;;;;1.33;93.42;98586.72;10434418;28;20116;-55
2023/01/03 02:40:04;;;;;;;197.65;109.40;;;;;;;1.31;93.45;98593.41;10439244;28;20458;-54
2023/01/03 02:45:33;;;;;;;146.85;85.78;;;;;;;1.29;92.99;98592.50;10437304;28;20083;-53
2023/01/03 02:50:52;;;;;;;152.00;88.28;;;;;;;1.17;92.94;98589.31;10434632;28;20103;-53
2023/01/03 02:55:56;;;;;;;156.33;92.83;;;;;;;1.19;93.11;98580.06;10419328;28;20064;-54
2023/01/03 03:00:58;;;;;;;149.35;91.13;;;;;;;1.20;92.95;98586.03;10417602;28;20060;-54
2023/01/03 03:06:06;;;;;;;161.32;94.20;;;;;;;1.19;92.92;98585.16;10443301;28;20082;-54
2023/01/03 03:16:48;;;;;;;138.45;83.95;;;;;;;1.08;92.65;98587.22;10444350;28;20056;-53
2023/01/03 03:32:35;;;;;;;143.15;84.50;;;;;;;1.00;92.62;98582.50;10458137;28;20446;-54
2023/01/03 03:37:37;;;;;;;138.73;82.57;;;;;;;0.93;92.71;98583.88;10415367;28;20059;-53
2023/01/03 03:48:10;;;;;;;124.57;74.80;;;;;;;0.89;92.43;98597.28;10456400;28;20067;-52
2023/01/03 03:53:13;;;;;;;117.90;69.10;;;;;;;0.87;92.65;98589.56;10455737;28;20064;-51
2023/01/03 03:58:17;;;;;;;112.90;66.32;;;;;;;0.84;92.51;98596.19;10417692;28;20056;-52
2023/01/03 04:03:17;;;;;;;111.50;66.95;;;;;;;0.79;92.41;98587.41;10417736;28;20117;-52
2023/01/03 04:08:16;;;;;;;109.60;65.95;;;;;;;0.70;92.54;98585.25;10451920;28;20076;-53
2023/01/03 04:13:15;;;;;;;111.50;64.60;;;;;;;0.71;92.76;98589.59;10417139;28;20483;-53
2023/01/03 04:18:14;;;;;;;129.43;78.40;;;;;;;0.71;92.61;98592.16;10452327;28;20121;-51
2023/01/03 04:23:13;;;;;;;125.20;74.05;;;;;;;0.71;92.71;98588.69;10460918;28;20064;-52
2023/01/03 04:28:12;;;;;;;133.20;79.80;;;;;;;0.70;92.70;98598.03;10455453;28;20082;-52
2023/01/03 04:33:11;;;;;;;123.13;71.13;;;;;;;0.69;92.54;98597.16;10454874;28;20028;-52
2023/01/03 04:38:10;;;;;;;161.70;92.80;;;;;;;0.61;92.48;98602.66;10453157;28;20055;-51
2023/01/03 04:48:27;;;;;;;128.48;72.93;;;;;;;0.54;92.37;98615.91;10455220;28;20063;-54
2023/01/03 04:53:26;;;;;;;115.63;67.38;;;;;;;0.39;92.44;98624.53;10454155;28;20032;-51
2023/01/03 04:58:25;;;;;;;;;;;;;;;0.25;92.33;98615.28;10451274;28;20071;-52
2023/01/03 05:03:24;;;;;;;100.47;60.63;;;;;;;0.30;92.38;98620.63;10437437;28;19915;-53
2023/01/03 05:08:23;;;;;;;118.90;70.50;;;;;;;0.27;92.33;98621.34;10454401;28;20467;-49
2023/01/03 05:13:22;;;;;;;133.02;76.75;;;;;;;0.25;92.51;98628.03;10453564;28;20050;-53
2023/01/03 05:18:21;;;;;;;140.50;82.38;;;;;;;0.24;92.22;98631.38;10453517;28;20073;-53
2023/01/03 05:28:39;;;;;;;162.20;95.93;;;;;;;0.13;92.52;98629.94;10453853;28;19979;-50
2023/01/03 05:33:38;;;;;;;160.32;93.00;;;;;;;0.09;92.82;98633.09;10453034;28;20506;-52
2023/01/03 05:38:38;;;;;;;147.00;89.13;;;;;;;0.07;92.93;98621.94;10454546;28;20052;-51
2023/01/03 05:43:37;;;;;;;160.98;89.72;;;;;;;0.15;92.65;98636.00;10447858;28;20079;-53
2023/01/03 05:48:36;;;;;;;159.23;91.95;;;;;;;0.16;93.09;98637.75;10446493;28;20066;-53
2023/01/03 05:53:34;;;;;;;167.95;99.68;;;;;;;0.18;92.64;98633.59;10452438;28;20111;-53
2023/01/03 05:58:33;;;;;;;180.73;103.47;;;;;;;0.15;92.59;98638.56;10416540;28;20020;-53
2023/01/03 06:03:32;;;;;;;184.25;107.45;;;;;;;0.24;92.81;98659.44;10418045;28;20049;-52
2023/01/03 06:08:32;;;;;;;164.70;95.75;;;;;;;0.15;92.75;98636.00;10418017;28;20695;-51
2023/01/03 06:13:31;;;;;;;151.32;88.00;;;;;;;0.29;92.83;98662.25;10456591;28;20086;-53
2023/01/03 06:18:30;;;;;;;164.18;95.28;;;;;;;0.27;92.87;98667.28;10465560;28;20116;-53
2023/01/03 06:23:29;;;;;;;178.13;97.72;;;;;;;0.31;92.66;98663.22;10446300;28;20050;-53
2023/01/03 06:28:28;;;;;;;232.77;135.90;;;;;;;0.27;92.55;98663.06;10452378;28;20554;-53
2023/01/03 06:33:27;;;;;;;309.52;178.23;;;;;;;0.23;92.98;98675.56;10458951;28;20489;-54
2023/01/03 06:38:27;;;;;;;234.50;134.73;;;;;;;0.15;93.40;98666.63;10460015;28;20465;-53
2023/01/03 06:43:26;;;;;;;181.48;109.53;;;;;;;0.16;93.63;98676.91;10454718;28;20846;-53
2023/01/03 06:53:43;;;;;;;164.13;96.05;;;;;;;0.38;93.03;98676.41;10442519;28;20067;-53
2023/01/03 06:58:42;;;;;;;219.38;123.22;;;;;;;0.51;92.93;98677.06;10453000;28;20072;-53
2023/01/03 07:03:41;;;;;;;285.38;159.07;;;;;;;0.60;93.05;98672.44;10437728;28;20034;-52
2023/01/03 07:08:40;;;;;;;215.85;127.50;;;;;;;0.79;92.79;98674.28;10418005;28;20064;-52
2023/01/03 07:13:57;;;;;;;227.05;134.77;;;;;;;0.91;92.89;98672.34;10440735;28;20104;-52
2023/01/03 07:18:56;;;;;;;218.45;130.55;;;;;;;1.07;92.72;98667.22;10432594;28;20079;-55
2023/01/03 07:23:57;;;;;;;215.80;129.45;;;;;;;1.27;92.72;98670.81;10441724;28;20514;-55
2023/01/03 07:28:57;;;;;;;239.55;145.85;;;;;;;1.43;92.48;98671.56;10445236;28;20083;-52
2023/01/03 07:33:57;;;;;;;275.38;176.35;;;;;;;1.50;91.99;98674.47;10442462;28;20521;-51
2023/01/03 07:38:55;;;;;;;;;;;;;;;1.66;92.28;98680.38;10444748;28;20056;-51
2023/01/03 07:43:54;;;;;;;399.83;243.38;;;;;;;1.87;91.96;98681.41;10445634;28;19948;-53
2023/01/03 07:48:56;;;;;;;313.13;195.85;;;;;;;2.01;91.48;98671.81;10456992;28;20127;-54
2023/01/03 07:53:55;;;;;;;346.00;204.15;;;;;;;2.30;91.36;98692.78;10447343;28;20071;-53
2023/01/03 07:58:54;;;;;;;231.93;147.98;;;;;;;2.49;91.34;98690.28;10434006;28;20113;-54
2023/01/03 08:03:53;;;;;;;226.40;139.43;;;;;;;2.68;91.12;98686.88;10447598;28;20036;-53
2023/01/03 08:14:09;;;;;;;204.57;130.02;;;;;;;3.13;90.83;98691.41;10417873;28;20676;-54
2023/01/03 08:19:08;;;;;;;160.75;103.85;;;;;;;3.32;90.82;98688.81;10423943;28;21078;-54
2023/01/03 08:24:07;;;;;;;179.63;123.95;;;;;;;3.55;90.56;98700.03;10441276;28;20138;-53
2023/01/03 08:29:07;;;;;;;146.95;101.63;;;;;;;3.73;90.51;98681.97;10448116;28;20119;-52
2023/01/03 08:34:10;;;;;;;151.23;100.50;;;;;;;4.02;90.31;98693.41;10414428;28;20470;-54
2023/01/03 08:39:13;;;;;;;148.00;96.82;;;;;;;4.33;89.83;98688.59;10436995;28;20482;-52
2023/01/03 08:44:13;;;;;;;151.40;104.63;;;;;;;4.61;89.40;98686.25;10451153;28;20052;-54
2023/01/03 08:49:12;;;;;;;163.48;114.45;;;;;;;4.87;88.55;98686.34;10439329;28;20074;-52
2023/01/03 08:54:11;;;;;;;173.25;119.82;;;;;;;5.06;88.02;98688.81;10427033;28;20067;-52
2023/01/03 08:59:10;;;;;;;212.40;148.65;;;;;;;5.27;87.67;98673.22;10435835;28;20032;-52
2023/01/03 09:04:09;;;;;;;246.27;182.05;;;;;;;5.48;86.65;98673.06;10442781;28;20048;-53
2023/01/03 09:09:08;;;;;;;213.95;152.23;;;;;;;5.71;86.91;98660.97;10452555;28;20016;-52
2023/01/03 09:14:10;;;;;;;197.35;144.18;;;;;;;5.93;86.08;98657.41;10433255;28;20064;-53
2023/01/03 09:19:09;;;;;;;170.77;125.63;;;;;;;6.26;85.39;98659.28;10430437;28;20068;-51
2023/01/03 09:24:08;;;;;;;166.73;123.55;;;;;;;6.58;85.76;98649.03;10452058;28;20398;-51
2023/01/03 09:29:07;;;;;;;;;;;;;;;6.88;84.66;98641.31;10434673;28;20068;-54
2023/01/03 09:34:06;;;;;;;139.75;104.40;;;;;;;7.17;83.63;98639.53;10451618;28;19912;-53
2023/01/03 09:39:05;;;;;;;123.57;93.43;;;;;;;7.49;82.71;98634.34;10440661;28;20123;-52
2023/01/03 09:44:05;;;;;;;;;;;;;;;7.82;81.64;98623.97;10463417;28;20070;-54
2023/01/03 09:49:06;;;;;;;103.35;75.38;;;;;;;8.05;80.24;98610.72;10448951;28;19958;-54
2023/01/03 10:04:58;;;;;;;98.50;69.88;;;;;;;8.98;75.89;98580.72;10436243;28;20472;-53
2023/01/03 10:10:28;;;;;;;205.65;126.85;;;;;;;9.23;74.90;98574.28;10419098;28;20066;-55
2023/01/03 10:15:52;;;;;;;103.10;74.93;;;;;;;9.56;75.18;98557.59;10446618;28;20119;-53
2023/01/03 10:20:56;;;;;;;92.38;67.75;;;;;;;9.73;72.30;98547.50;10436515;28;20068;-53
2023/01/03 10:25:55;;;;;;;82.72;63.00;;;;;;;10.06;71.20;98547.09;10459750;28;20067;-54
2023/01/03 10:31:19;;;;;;;73.15;57.65;;;;;;;10.37;70.76;98547.50;10437275;28;20074;-54
2023/01/03 10:36:20;;;;;;;81.50;61.40;;;;;;;10.61;69.80;98537.41;10424687;28;20111;-54
2023/01/03 10:41:32;;;;;;;60.05;46.38;;;;;;;10.78;69.37;98526.34;10453776;28;20064;-54
2023/01/03 10:46:31;;;;;;;49.08;37.05;;;;;;;10.96;67.76;98520.50;10422023;28;20064;-54
2023/01/03 10:51:52;;;;;;;47.33;34.58;;;;;;;11.19;67.71;98512.91;10452538;28;20071;-54
2023/01/03 10:56:52;;;;;;;44.55;31.30;;;;;;;11.35;66.53;98495.72;10458075;28;20063;-54
2023/01/03 11:02:13;;;;;;;35.05;27.27;;;;;;;11.61;65.92;98499.38;10452065;28;20258;-54
2023/01/03 11:07:15;;;;;;;59.63;39.28;;;;;;;11.79;64.01;98496.03;10426752;28;20490;-53
2023/01/03 11:12:19;;;;;;;33.95;23.80;;;;;;;11.87;62.68;98483.06;10457201;28;20582;-54
2023/01/03 11:17:20;;;;;;;33.90;25.20;;;;;;;12.09;62.13;98471.06;10457408;28;20892;-53
2023/01/03 11:22:37;;;;;;;32.53;22.73;;;;;;;12.35;62.15;98465.13;10433310;28;20079;-53
2023/01/03 11:27:36;;;;;;;50.10;35.83;;;;;;;12.48;61.50;98462.53;10454456;28;20066;-51
2023/01/03 11:33:11;;;;;;;32.35;25.15;;;;;;;12.64;59.52;98459.97;10452580;28;20028;-53
2023/01/03 11:38:10;;;;;;;80.90;51.00;;;;;;;12.88;59.43;98440.91;10454472;28;20059;-52
2023/01/03 11:43:35;;;;;;;53.15;45.70;;;;;;;13.05;58.16;98436.59;10449135;28;20119;-53
2023/01/03 11:49:03;;;;;;;49.63;36.20;;;;;;;13.30;58.04;98424.38;10420949;28;20070;-52
2023/01/03 11:54:07;;;;;;;71.30;59.17;;;;;;;13.48;57.42;98423.50;10457100;28;20052;-54
2023/01/03 11:59:24;;;;;;;42.70;31.90;;;;;;;13.62;56.54;98422.63;10427970;28;20544;-52
2023/01/03 12:05:28;;;;;;;38.08;29.80;;;;;;;13.81;55.71;98416.50;10434168;28;20457;-51
2023/01/03 12:10:40;;;;;;;39.13;27.67;;;;;;;13.98;54.98;98412.09;10424288;28;20087;-53
2023/01/03 12:15:55;;;;;;;27.13;20.02;;;;;;;14.25;55.03;98407.59;10439137;28;20111;-53
2023/01/03 12:21:01;;;;;;;29.35;20.67;;;;;;;14.40;53.80;98397.09;10454297;28;20059;-54
2023/01/03 12:26:05;;;;;;;26.33;18.70;;;;;;;14.61;52.51;98384.75;10432766;28;20131;-53
2023/01/03 12:31:12;;;;;;;26.35;18.33;;;;;;;14.79;52.21;98392.47;10422840;28;20078;-54
2023/01/03 12:36:43;;;;;;;30.67;20.95;;;;;;;14.97;51.73;98377.56;10430934;28;20055;-52
2023/01/03 12:41:55;;;;;;;16.10;12.95;;;;;;;15.03;51.09;98372.25;10421943;28;20072;-53
2023/01/03 12:46:55;;;;;;;24.33;16.23;;;;;;;15.28;50.90;98387.72;10413981;28;20139;-52
2023/01/03 12:51:54;;;;;;;31.88;15.95;;;;;;;15.42;50.28;98378.84;10428634;28;20111;-53
2023/01/03 12:56:56;;;;;;;;;;;;;;;15.54;49.51;98370.00;10448084;28;20154;-53
2023/01/03 13:02:12;;;;;;;42.15;22.63;;;;;;;15.71;49.86;98376.78;10437187;28;19963;-52
2023/01/03 13:07:15;;;;;;;22.15;12.27;;;;;;;15.71;48.84;98387.25;10430314;28;20060;-53
2023/01/03 13:12:19;;;;;;;19.90;12.85;;;;;;;15.72;47.96;98389.00;10423841;28;20067;-53
2023/01/03 13:17:21;;;;;;;222.27;128.98;;;;;;;15.82;47.58;98395.88;10438676;28;20501;-53
2023/01/03 13:22:45;;;;;;;29.23;17.35;;;;;;;16.00;47.01;98389.56;10443490;28;20068;-54
2023/01/03 13:27:50;;;;;;;107.03;67.85;;;;;;;16.08;45.96;98391.19;10432113;28;20123;-52
2023/01/03 13:33:09;;;;;;;31.95;22.23;;;;;;;16.24;45.76;98393.59;10426968;28;20136;-53
2023/01/03 13:38:29;;;;;;;41.65;18.67;;;;;;;16.29;46.16;98394.41;10431041;28;20164;-54
2023/01/03 13:43:34;;;;;;;138.88;112.90;;;;;;;16.18;44.05;98399.78;10436993;28;20079;-54
2023/01/03 13:48:37;;;;;;;354.33;261.02;;;;;;;16.26;44.20;98387.47;10453189;28;20487;-54
2023/01/03 13:53:50;;;;;;;79.28;55.08;;;;;;;16.44;45.35;98398.56;10421218;28;20119;-54
2023/01/03 13:58:58;;;;;;;40.83;28.42;;;;;;;16.40;46.07;98397.75;10452183;28;20059;-53
2023/01/03 14:04:21;;;;;;;45.17;31.70;;;;;;;16.28;46.88;98392.69;10442781;28;20584;-53
2023/01/03 14:09:26;;;;;;;34.90;20.15;;;;;;;16.03;46.86;98395.63;10452758;28;20084;-53
2023/01/03 14:14:29;;;;;;;32.05;18.48;;;;;;;15.70;46.97;98389.00;10437015;28;20120;-53
2023/01/03 14:19:34;;;;;;;35.63;19.20;;;;;;;15.48;47.45;98397.97;10435535;28;20087;-54
2023/01/03 14:24:35;;;;;;;48.13;24.70;;;;;;;15.18;47.98;98398.25;10433473;28;20064;-53
2023/01/03 14:29:37;;;;;;;38.53;25.00;;;;;;;14.78;48.76;98401.22;10433760;28;20119;-54
2023/01/03 14:34:40;;;;;;;40.83;22.88;;;;;;;14.51;48.56;98403.97;10437537;28;20067;-54
2023/01/03 14:39:39;;;;;;;31.33;21.08;;;;;;;14.28;48.31;98407.56;10427615;28;20067;-54
2023/01/03 14:44:37;;;;;;;;;;;;;;;14.01;48.49;98420.75;10432812;28;20051;-54
2023/01/03 14:49:43;;;;;;;45.10;26.52;;;;;;;13.69;49.84;98424.34;10440553;28;19951;-54
2023/01/03 14:54:47;;;;;;;33.25;21.77;;;;;;;13.34;50.15;98418.31;10437488;28;20076;-53
2023/01/03 14:59:47;;;;;;;37.45;24.52;;;;;;;13.05;50.96;98426.16;10422272;27;20450;-54
2023/01/03 15:04:52;;;;;;;52.90;28.42;;;;;;;12.64;52.06;98434.78;10450140;28;20063;-53
2023/01/03 15:10:04;;;;;;;80.35;51.45;;;;;;;12.11;53.71;98438.13;10439130;28;20066;-54
2023/01/03 15:15:27;;;;;;;65.95;42.25;;;;;;;11.81;54.25;98437.09;10434917;28;20078;-55
2023/01/03 15:20:38;;;;;;;64.93;41.55;;;;;;;11.61;54.95;98447.38;10419815;28;20476;-54
2023/01/03 15:25:40;;;;;;;77.53;46.45;;;;;;;11.44;55.62;98457.69;10434899;28;20091;-52
2023/01/03 15:30:47;;;;;;;66.13;44.30;;;;;;;11.14;56.17;98460.06;10430456;28;20131;-54
2023/01/03 15:35:49;;;;;;;60.00;35.10;;;;;;;10.81;57.46;98451.09;10432886;28;20495;-54
2023/01/03 15:40:49;;;;;;;79.45;47.85;;;;;;;10.67;58.33;98470.84;10430097;28;20119;-54
2023/01/03 15:46:01;;;;;;;76.35;46.20;;;;;;;10.44;59.26;98463.69;10457839;28;20063;-54
2023/01/03 15:51:01;;;;;;;96.57;61.38;;;;;;;10.22;60.40;98478.16;10439865;28;20071;-52
2023/01/03 15:56:05;;;;;;;106.18;69.95;;;;;;;9.89;62.04;98479.47;10446199;28;20127;-53
2023/01/03 16:01:05;;;;;;;121.68;75.68;;;;;;;9.66;63.24;98486.06;10431250;28;20091;-53
2023/01/03 16:06:04;;;;;;;147.70;91.60;;;;;;;9.40;64.28;98485.66;10451511;28;20063;-52
2023/01/03 16:11:17;;;;;;;105.57;72.85;;;;;;;9.25;64.80;98500.06;10437205;28;20135;-53
2023/01/03 16:16:23;;;;;;;99.65;67.60;;;;;;;9.12;65.38;98492.97;10446342;28;20066;-54
2023/01/03 16:21:23;;;;;;;95.70;60.15;;;;;;;9.00;66.15;98497.94;10456119;28;20164;-51
2023/01/03 16:26:22;;;;;;;85.00;54.45;;;;;;;8.82;66.76;98509.69;10438570;28;20119;-53
2023/01/03 16:31:30;;;;;;;91.82;58.92;;;;;;;8.76;67.14;98524.22;10430616;28;20197;-51
2023/01/03 16:36:38;;;;;;;78.40;53.55;;;;;;;8.65;67.65;98524.03;10433578;28;20072;-53
2023/01/03 16:41:37;;;;;;;78.03;52.08;;;;;;;8.55;67.92;98533.31;10424513;28;20067;-52
2023/01/03 16:46:37;;;;;;;75.05;51.10;;;;;;;8.46;68.37;98540.94;10431902;28;20038;-52
2023/01/03 16:51:42;;;;;;;75.93;49.65;;;;;;;8.43;68.75;98546.88;10438781;28;20131;-54
2023/01/03 16:56:40;;;;;;;53.15;36.78;;;;;;;8.34;69.22;98546.72;10453612;28;20759;-53
2023/01/03 17:01:40;;;;;;;59.97;35.97;;;;;;;8.25;69.89;98556.88;10453863;28;20525;-55
2023/01/03 17:06:39;;;;;;;;;;;;;;;8.25;69.55;98564.63;10434918;28;20071;-55
2023/01/03 17:11:39;;;;;;;58.03;36.43;;;;;;;8.21;70.02;98562.81;10446938;28;20010;-55
2023/01/03 17:16:38;;;;;;;45.75;32.55;;;;;;;8.13;70.54;98559.19;10446804;28;20522;-55
2023/01/03 17:21:36;;;;;;;48.17;33.45;;;;;;;8.06;71.22;98561.66;10441260;28;20511;-56
2023/01/03 17:26:35;;;;;;;68.22;46.50;;;;;;;8.06;71.34;98568.50;10427081;28;20732;-55
2023/01/03 17:31:34;;;;;;;88.05;60.95;;;;;;;8.05;71.27;98569.34;10440525;28;20066;-54
2023/01/03 17:36:33;;;;;;;83.38;56.92;;;;;;;8.01;71.34;98573.59;10443090;28;20419;-54
2023/01/03 17:42:11;;;;;;;98.25;66.68;;;;;;;7.99;71.34;98574.38;10441246;28;20028;-55
2023/01/03 17:52:22;;;;;;;176.40;122.25;;;;;;;7.68;72.06;98559.91;10439047;28;20071;-55
2023/01/03 17:57:21;;;;;;;125.63;83.10;;;;;;;7.60;72.39;98576.09;10445760;28;20498;-55
2023/01/03 18:02:23;;;;;;;180.75;120.05;;;;;;;7.49;72.76;98581.84;10446329;28;20169;-54
2023/01/03 18:07:25;;;;;;;167.32;111.20;;;;;;;7.36;73.48;98583.22;10448101;28;20079;-53
2023/01/03 18:12:25;;;;;;;175.98;114.60;;;;;;;7.17;73.98;98580.16;10429981;28;20111;-55
2023/01/03 18:17:32;;;;;;;218.10;134.32;;;;;;;6.94;74.80;98574.41;10419142;28;20151;-55
2023/01/03 18:22:31;;;;;;;178.63;121.88;;;;;;;6.78;75.96;98585.13;10426533;28;20479;-55
2023/01/03 18:27:31;;;;;;;210.85;137.68;;;;;;;6.69;77.36;98590.91;10454398;28;20495;-55
2023/01/03 18:32:33;;;;;;;231.07;155.65;;;;;;;6.61;77.87;98580.38;10439422;28;20075;-55
2023/01/03 18:37:34;;;;;;;183.15;119.43;;;;;;;6.57;77.77;98586.28;10455476;28;20611;-54
2023/01/03 18:47:51;;;;;;;156.05;101.72;;;;;;;6.38;78.77;98602.94;10455220;28;20516;-55
2023/01/03 18:52:51;;;;;;;162.10;107.38;;;;;;;6.24;79.10;98606.81;10446581;28;20486;-55
2023/01/03 18:57:51;;;;;;;175.20;110.35;;;;;;;6.14;79.09;98600.50;10454447;28;20067;-55
2023/01/03 19:02:51;;;;;;;177.05;110.95;;;;;;;6.00;79.57;98600.91;10444568;28;20075;-55
2023/01/03 19:07:51;;;;;;;207.38;135.02;;;;;;;5.85;80.40;98606.47;10453338;28;20082;-55
2023/01/03 19:12:55;;;;;;;283.17;183.68;;;;;;;5.76;80.59;98602.75;10447668;28;20090;-55
2023/01/03 19:17:55;;;;;;;239.65;150.07;;;;;;;5.71;80.81;98603.44;10453721;28;20521;-55
2023/01/03 19:22:55;;;;;;;212.88;136.10;;;;;;;5.58;81.08;98609.91;10446089;28;20494;-55
2023/01/03 19:27:58;;;;;;;;;;;;;;;5.52;82.37;98613.16;10453865;28;20503;-53
2023/01/03 19:32:58;;;;;;;244.90;161.85;;;;;;;5.39;82.82;98605.88;10445538;28;20323;-54
2023/01/03 19:37:57;;;;;;;262.63;166.50;;;;;;;5.33;83.51;98621.97;10415558;28;20071;-53
2023/01/03 19:42:57;;;;;;;232.63;146.25;;;;;;;5.21;83.60;98620.69;10446564;28;20027;-55
2023/01/03 19:47:58;;;;;;;183.30;120.28;;;;;;;5.18;84.26;98621.47;10452522;28;20485;-54
2023/01/03 19:52:57;;;;;;;207.02;131.80;;;;;;;5.12;84.60;98622.13;10449737;28;20114;-53
2023/01/03 19:58:00;;;;;;;230.52;149.30;;;;;;;5.06;84.46;98614.19;10412584;28;20060;-53
2023/01/03 20:03:05;;;;;;;267.02;169.00;;;;;;;5.04;84.73;98623.56;10445160;28;20067;-54
2023/01/03 20:08:07;;;;;;;291.48;185.98;;;;;;;4.95;84.61;98610.38;10451452;28;20056;-54
2023/01/03 20:13:14;;;;;;;307.38;195.38;;;;;;;4.90;84.76;98611.88;10447081;28;20509;-55
2023/01/03 20:18:30;;;;;;;275.63;171.32;;;;;;;4.78;85.07;98608.84;10422647;28;20508;-56
2023/01/03 20:23:38;;;;;;;230.48;142.73;;;;;;;4.67;85.31;98606.78;10447462;28;20094;-54
2023/01/03 20:28:37;;;;;;;256.55;161.90;;;;;;;4.65;85.84;98611.00;10450073;28;20055;-53
2023/01/03 20:33:37;;;;;;;271.95;171.35;;;;;;;4.60;86.10;98599.69;10449247;28;20048;-55
2023/01/03 20:38:37;;;;;;;344.35;214.98;;;;;;;4.55;86.33;98611.50;10427437;28;20094;-55
2023/01/03 20:43:36;;;;;;;323.23;205.70;;;;;;;4.46;86.49;98626.56;10443828;28;20075;-55
2023/01/03 20:48:35;;;;;;;305.33;188.02;;;;;;;4.42;86.74;98614.41;10450318;28;20343;-55
2023/01/03 20:53:34;;;;;;;302.85;181.00;;;;;;;4.32;86.72;98602.94;10449684;28;20450;-53
2023/01/03 20:58:33;;;;;;;265.48;160.75;;;;;;;4.31;86.65;98613.13;10464082;28;20048;-55
2023/01/03 21:03:37;;;;;;;236.43;149.57;;;;;;;4.16;87.60;98596.34;10425190;28;20040;-54
2023/01/03 21:08:54;;;;;;;224.80;146.95;;;;;;;4.11;87.68;98597.00;10445801;28;20082;-55
2023/01/03 21:13:54;;;;;;;241.10;149.30;;;;;;;4.08;87.56;98600.31;10443001;28;20539;-55
2023/01/03 21:18:53;;;;;;;244.38;153.45;;;;;;;4.01;87.71;98606.00;10446855;28;20075;-55
2023/01/03 21:23:53;;;;;;;;;;;;;;;3.86;88.92;98617.44;10408849;28;20083;-55
2023/01/03 21:28:51;;;;;;;401.57;240.00;;;;;;;3.83;89.25;98611.31;10451154;28;19970;-54
2023/01/03 21:33:51;;;;;;;372.38;225.18;;;;;;;3.83;89.02;98607.06;10436001;28;20044;-54
2023/01/03 21:38:51;;;;;;;338.55;208.85;;;;;;;3.85;88.78;98608.00;10436111;28;20744;-56
2023/01/03 21:43:56;;;;;;;357.48;213.82;;;;;;;3.81;88.81;98611.25;10422058;28;20140;-55
2023/01/03 21:48:55;;;;;;;309.70;181.32;;;;;;;3.79;88.75;98605.19;10430568;28;20127;-54
2023/01/03 21:53:54;;;;;;;284.80;162.75;;;;;;;3.74;88.39;98616.09;10444422;28;20133;-55
2023/01/03 21:58:53;;;;;;;227.77;134.50;;;;;;;3.63;88.68;98620.78;10402620;28;20158;-54
2023/01/03 22:10:14;;;;;;;289.70;161.43;;;;;;;3.44;88.42;98612.34;10397448;28;20056;-54
2023/01/03 22:14:28;;;;;;;185.32;111.90;;;;;;;3.37;88.54;98609.47;10386525;28;20072;-53
2023/01/03 22:19:27;;;;;;;202.68;119.35;;;;;;;3.33;88.63;98607.59;10382317;28;20049;-54
2023/01/03 22:24:26;;;;;;;215.10;129.52;;;;;;;3.23;88.81;98611.47;10404451;28;20033;-55
2023/01/03 22:29:25;;;;;;;215.68;130.82;;;;;;;3.16;88.66;98614.59;10407429;28;20033;-54
2023/01/03 22:34:24;;;;;;;202.20;121.03;;;;;;;3.11;88.86;98618.66;10402261;28;20038;-55
2023/01/03 22:39:23;;;;;;;178.20;114.80;;;;;;;3.02;89.36;98622.56;10413689;28;20128;-54
2023/01/03 22:44:22;;;;;;;163.45;100.43;;;;;;;3.05;89.45;98626.06;10401009;28;20040;-54
2023/01/03 22:49:21;;;;;;;158.95;97.22;;;;;;;2.97;89.20;98628.31;10389016;28;20486;-55
2023/01/03 22:54:20;;;;;;;158.88;97.68;;;;;;;2.92;89.56;98633.25;10396615;28;20091;-54
2023/01/03 22:59:19;;;;;;;157.13;96.25;;;;;;;2.84;89.31;98626.94;10394835;28;20535;-55
2023/01/03 23:04:18;;;;;;;238.30;138.07;;;;;;;2.77;89.36;98645.41;10400127;28;20131;-54
2023/01/03 23:09:18;;;;;;;227.45;134.00;;;;;;;2.69;89.74;98629.66;10386879;28;20049;-55
2023/01/03 23:14:19;;;;;;;231.75;132.43;;;;;;;2.66;89.60;98626.13;10401615;28;20106;-54
2023/01/03 23:19:22;;;;;;;229.07;130.70;;;;;;;2.62;90.38;98632.78;10388096;28;20088;-55
2023/01/03 23:24:23;;;;;;;235.25;134.55;;;;;;;2.58;90.57;98629.22;10397351;28;20059;-53
2023/01/03 23:29:22;;;;;;;229.75;131.63;;;;;;;2.53;90.48;98620.41;10387734;28;20146;-53
2023/01/03 23:34:21;;;;;;;227.95;131.77;;;;;;;2.51;90.49;98609.25;10396526;28;20075;-54
2023/01/03 23:39:20;;;;;;;220.27;125.28;;;;;;;2.54;90.67;98621.31;10398118;28;20060;-55
2023/01/03 23:44:19;;;;;;;186.18;110.75;;;;;;;2.51;90.85;98614.38;10395248;28;20040;-55
2023/01/03 23:49:18;;;;;;;152.43;91.53;;;;;;;2.46;91.09;98618.41;10389961;28;20037;-55
2023/01/03 23:54:17;;;;;;;170.88;103.10;;;;;;;2.33;91.96;98626.34;10378863;28;20041;-55
2023/01/03 23:59:16;;;;;;;175.73;109.93;;;;;;;2.33;91.70;98631.47;10390670;28;20049;-54
